sensor_id;sensor_type;location;lat;lon;timestamp;temperature;humidity
28075;DHT22;15385;51.088;6.572;2022-07-17T00:00:48;20.30;97.10
28075;DHT22;15385;51.088;6.572;2022-07-17T00:03:19;20.20;97.40
28075;DHT22;15385;51.088;6.572;2022-07-17T00:05:50;20.20;97.70
28075;DHT22;15385;51.088;6.572;2022-07-17T00:08:20;20.10;97.70
28075;DHT22;15385;51.088;6.572;2022-07-17T00:10:51;20.20;97.70
28075;DHT22;15385;51.088;6.572;2022-07-17T00:13:21;20.10;97.80
28075;DHT22;15385;51.088;6.572;2022-07-17T00:15:52;20.00;97.90
28075;DHT22;15385;51.088;6.572;2022-07-17T00:18:23;19.90;98.20
28075;DHT22;15385;51.088;6.572;2022-07-17T00:20:54;19.90;98.10
28075;DHT22;15385;51.088;6.572;2022-07-17T00:23:24;19.80;98.30
28075;DHT22;15385;51.088;6.572;2022-07-17T00:25:55;19.70;98.50
28075;DHT22;15385;51.088;6.572;2022-07-17T00:28:28;19.70;98.70
28075;DHT22;15385;51.088;6.572;2022-07-17T00:30:59;19.70;99.00
28075;DHT22;15385;51.088;6.572;2022-07-17T00:33:30;19.60;99.10
28075;DHT22;15385;51.088;6.572;2022-07-17T00:36:01;19.70;99.10
28075;DHT22;15385;51.088;6.572;2022-07-17T00:38:31;19.60;99.20
28075;DHT22;15385;51.088;6.572;2022-07-17T00:41:05;19.60;99.40
28075;DHT22;15385;51.088;6.572;2022-07-17T00:43:38;19.60;99.50
28075;DHT22;15385;51.088;6.572;2022-07-17T00:46:09;19.60;99.80
28075;DHT22;15385;51.088;6.572;2022-07-17T00:48:39;19.60;99.80
28075;DHT22;15385;51.088;6.572;2022-07-17T00:51:10;19.60;99.90
28075;DHT22;15385;51.088;6.572;2022-07-17T00:53:42;19.50;99.90
28075;DHT22;15385;51.088;6.572;2022-07-17T00:56:14;19.40;99.90
28075;DHT22;15385;51.088;6.572;2022-07-17T00:58:49;19.40;99.90
28075;DHT22;15385;51.088;6.572;2022-07-17T01:01:20;19.30;99.90
28075;DHT22;15385;51.088;6.572;2022-07-17T01:03:51;19.30;99.90
28075;DHT22;15385;51.088;6.572;2022-07-17T01:06:22;19.30;99.90
28075;DHT22;15385;51.088;6.572;2022-07-17T01:08:53;19.30;99.90
28075;DHT22;15385;51.088;6.572;2022-07-17T01:11:23;19.20;99.90
28075;DHT22;15385;51.088;6.572;2022-07-17T01:13:57;19.20;99.90
28075;DHT22;15385;51.088;6.572;2022-07-17T01:16:31;19.10;99.90
28075;DHT22;15385;51.088;6.572;2022-07-17T01:19:03;19.10;99.90
28075;DHT22;15385;51.088;6.572;2022-07-17T01:21:41;19.10;99.90
28075;DHT22;15385;51.088;6.572;2022-07-17T01:24:13;19.00;99.90
28075;DHT22;15385;51.088;6.572;2022-07-17T01:26:45;18.90;99.90
28075;DHT22;15385;51.088;6.572;2022-07-17T01:29:19;18.90;99.90
28075;DHT22;15385;51.088;6.572;2022-07-17T01:31:50;18.90;99.90
28075;DHT22;15385;51.088;6.572;2022-07-17T01:34:23;18.80;99.90
28075;DHT22;15385;51.088;6.572;2022-07-17T01:36:54;18.80;99.90
28075;DHT22;15385;51.088;6.572;2022-07-17T01:39:24;18.80;99.90
28075;DHT22;15385;51.088;6.572;2022-07-17T01:42:14;18.60;99.90
28075;DHT22;15385;51.088;6.572;2022-07-17T01:44:44;18.60;99.90
28075;DHT22;15385;51.088;6.572;2022-07-17T01:47:19;18.50;99.90
28075;DHT22;15385;51.088;6.572;2022-07-17T01:49:55;18.50;99.90
28075;DHT22;15385;51.088;6.572;2022-07-17T01:52:26;18.50;99.90
28075;DHT22;15385;51.088;6.572;2022-07-17T01:54:57;18.50;99.90
28075;DHT22;15385;51.088;6.572;2022-07-17T01:57:28;18.40;99.90
28075;DHT22;15385;51.088;6.572;2022-07-17T01:59:58;18.40;99.90
28075;DHT22;15385;51.088;6.572;2022-07-17T02:02:29;18.40;99.90
28075;DHT22;15385;51.088;6.572;2022-07-17T02:05:00;18.40;99.90
28075;DHT22;15385;51.088;6.572;2022-07-17T02:07:30;18.40;99.90
28075;DHT22;15385;51.088;6.572;2022-07-17T02:10:02;18.40;99.90
28075;DHT22;15385;51.088;6.572;2022-07-17T02:12:33;18.40;99.90
28075;DHT22;15385;51.088;6.572;2022-07-17T02:15:05;18.40;99.90
28075;DHT22;15385;51.088;6.572;2022-07-17T02:17:35;18.40;99.90
28075;DHT22;15385;51.088;6.572;2022-07-17T02:20:07;18.20;99.90
28075;DHT22;15385;51.088;6.572;2022-07-17T02:22:39;18.20;99.90
28075;DHT22;15385;51.088;6.572;2022-07-17T02:25:09;18.10;99.90
28075;DHT22;15385;51.088;6.572;2022-07-17T02:27:41;18.10;99.90
28075;DHT22;15385;51.088;6.572;2022-07-17T02:30:17;18.10;99.90
28075;DHT22;15385;51.088;6.572;2022-07-17T02:32:48;18.10;99.90
28075;DHT22;15385;51.088;6.572;2022-07-17T02:35:18;17.90;99.90
28075;DHT22;15385;51.088;6.572;2022-07-17T02:37:49;17.80;99.90
28075;DHT22;15385;51.088;6.572;2022-07-17T02:40:19;17.80;99.90
28075;DHT22;15385;51.088;6.572;2022-07-17T02:42:50;17.80;99.90
28075;DHT22;15385;51.088;6.572;2022-07-17T02:45:23;17.80;99.90
28075;DHT22;15385;51.088;6.572;2022-07-17T02:47:56;17.70;99.90
28075;DHT22;15385;51.088;6.572;2022-07-17T02:50:27;17.60;99.90
28075;DHT22;15385;51.088;6.572;2022-07-17T02:52:58;17.50;99.90
28075;DHT22;15385;51.088;6.572;2022-07-17T02:55:28;17.50;99.90
28075;DHT22;15385;51.088;6.572;2022-07-17T02:57:59;17.60;99.90
28075;DHT22;15385;51.088;6.572;2022-07-17T03:00:30;17.60;99.90
28075;DHT22;15385;51.088;6.572;2022-07-17T03:03:00;17.60;99.90
28075;DHT22;15385;51.088;6.572;2022-07-17T03:05:31;17.60;99.90
28075;DHT22;15385;51.088;6.572;2022-07-17T03:08:02;17.50;99.90
28075;DHT22;15385;51.088;6.572;2022-07-17T03:10:33;17.60;99.90
28075;DHT22;15385;51.088;6.572;2022-07-17T03:13:03;17.50;99.90
28075;DHT22;15385;51.088;6.572;2022-07-17T03:15:34;17.50;99.90
28075;DHT22;15385;51.088;6.572;2022-07-17T03:18:04;17.40;99.90
28075;DHT22;15385;51.088;6.572;2022-07-17T03:20:35;17.40;99.90
28075;DHT22;15385;51.088;6.572;2022-07-17T03:23:08;17.40;99.90
28075;DHT22;15385;51.088;6.572;2022-07-17T03:25:39;17.30;99.90
28075;DHT22;15385;51.088;6.572;2022-07-17T03:28:09;17.20;99.90
28075;DHT22;15385;51.088;6.572;2022-07-17T03:30:40;17.10;99.90
28075;DHT22;15385;51.088;6.572;2022-07-17T03:33:10;17.10;99.90
28075;DHT22;15385;51.088;6.572;2022-07-17T03:35:41;17.20;99.90
28075;DHT22;15385;51.088;6.572;2022-07-17T03:38:12;17.20;99.90
28075;DHT22;15385;51.088;6.572;2022-07-17T03:40:42;17.10;99.90
28075;DHT22;15385;51.088;6.572;2022-07-17T03:43:13;17.20;99.90
28075;DHT22;15385;51.088;6.572;2022-07-17T03:45:44;17.20;99.90
28075;DHT22;15385;51.088;6.572;2022-07-17T03:48:15;17.10;99.90
28075;DHT22;15385;51.088;6.572;2022-07-17T03:50:45;17.10;99.90
28075;DHT22;15385;51.088;6.572;2022-07-17T03:53:16;17.10;99.90
28075;DHT22;15385;51.088;6.572;2022-07-17T03:55:47;17.00;99.90
28075;DHT22;15385;51.088;6.572;2022-07-17T03:58:20;17.00;99.90
28075;DHT22;15385;51.088;6.572;2022-07-17T04:00:51;17.00;99.90
28075;DHT22;15385;51.088;6.572;2022-07-17T04:03:22;16.90;99.90
28075;DHT22;15385;51.088;6.572;2022-07-17T04:05:52;16.90;99.90
28075;DHT22;15385;51.088;6.572;2022-07-17T04:08:23;16.90;99.90
28075;DHT22;15385;51.088;6.572;2022-07-17T04:10:54;16.90;99.90
28075;DHT22;15385;51.088;6.572;2022-07-17T04:13:24;16.90;99.90
28075;DHT22;15385;51.088;6.572;2022-07-17T04:15:55;17.00;99.90
28075;DHT22;15385;51.088;6.572;2022-07-17T04:18:32;17.00;99.90
28075;DHT22;15385;51.088;6.572;2022-07-17T04:21:06;17.10;99.90
28075;DHT22;15385;51.088;6.572;2022-07-17T04:23:37;17.10;99.90
28075;DHT22;15385;51.088;6.572;2022-07-17T04:26:08;17.10;99.90
28075;DHT22;15385;51.088;6.572;2022-07-17T04:28:39;17.10;99.90
28075;DHT22;15385;51.088;6.572;2022-07-17T04:31:10;17.20;99.90
28075;DHT22;15385;51.088;6.572;2022-07-17T04:33:40;17.20;99.90
28075;DHT22;15385;51.088;6.572;2022-07-17T04:36:14;17.20;99.90
28075;DHT22;15385;51.088;6.572;2022-07-17T04:38:44;17.20;99.90
28075;DHT22;15385;51.088;6.572;2022-07-17T04:41:15;17.30;99.90
28075;DHT22;15385;51.088;6.572;2022-07-17T04:43:45;17.30;99.90
28075;DHT22;15385;51.088;6.572;2022-07-17T04:46:16;17.30;99.90
28075;DHT22;15385;51.088;6.572;2022-07-17T04:48:47;17.30;99.90
28075;DHT22;15385;51.088;6.572;2022-07-17T04:51:17;17.30;99.90
28075;DHT22;15385;51.088;6.572;2022-07-17T04:53:50;17.30;99.90
28075;DHT22;15385;51.088;6.572;2022-07-17T04:56:21;17.20;99.90
28075;DHT22;15385;51.088;6.572;2022-07-17T04:58:52;17.10;99.90
28075;DHT22;15385;51.088;6.572;2022-07-17T05:01:23;17.20;99.90
28075;DHT22;15385;51.088;6.572;2022-07-17T05:03:53;17.20;99.90
28075;DHT22;15385;51.088;6.572;2022-07-17T05:06:27;17.30;99.90
28075;DHT22;15385;51.088;6.572;2022-07-17T05:08:57;17.30;99.90
28075;DHT22;15385;51.088;6.572;2022-07-17T05:11:28;17.60;99.90
28075;DHT22;15385;51.088;6.572;2022-07-17T05:13:58;17.60;99.90
28075;DHT22;15385;51.088;6.572;2022-07-17T05:16:34;17.70;99.90
28075;DHT22;15385;51.088;6.572;2022-07-17T05:19:05;17.70;99.90
28075;DHT22;15385;51.088;6.572;2022-07-17T05:21:36;17.90;99.90
28075;DHT22;15385;51.088;6.572;2022-07-17T05:24:07;17.90;99.90
28075;DHT22;15385;51.088;6.572;2022-07-17T05:26:37;17.90;99.90
28075;DHT22;15385;51.088;6.572;2022-07-17T05:29:08;17.90;99.90
28075;DHT22;15385;51.088;6.572;2022-07-17T05:31:38;18.00;99.90
28075;DHT22;15385;51.088;6.572;2022-07-17T05:34:09;18.10;99.90
28075;DHT22;15385;51.088;6.572;2022-07-17T05:36:40;18.20;99.90
28075;DHT22;15385;51.088;6.572;2022-07-17T05:39:10;18.30;99.90
28075;DHT22;15385;51.088;6.572;2022-07-17T05:41:41;18.40;99.90
28075;DHT22;15385;51.088;6.572;2022-07-17T05:44:12;18.50;99.90
28075;DHT22;15385;51.088;6.572;2022-07-17T05:46:42;18.60;99.90
28075;DHT22;15385;51.088;6.572;2022-07-17T05:49:13;18.60;99.90
28075;DHT22;15385;51.088;6.572;2022-07-17T05:51:43;18.70;99.90
28075;DHT22;15385;51.088;6.572;2022-07-17T05:54:14;18.80;99.90
28075;DHT22;15385;51.088;6.572;2022-07-17T05:56:45;18.90;99.90
28075;DHT22;15385;51.088;6.572;2022-07-17T05:59:15;19.00;99.90
28075;DHT22;15385;51.088;6.572;2022-07-17T06:01:46;19.10;99.90
28075;DHT22;15385;51.088;6.572;2022-07-17T06:04:16;19.20;99.90
28075;DHT22;15385;51.088;6.572;2022-07-17T06:06:47;19.20;99.90
28075;DHT22;15385;51.088;6.572;2022-07-17T06:09:18;19.30;99.90
28075;DHT22;15385;51.088;6.572;2022-07-17T06:11:48;19.40;99.90
28075;DHT22;15385;51.088;6.572;2022-07-17T06:14:19;19.50;99.90
28075;DHT22;15385;51.088;6.572;2022-07-17T06:16:50;19.60;99.90
28075;DHT22;15385;51.088;6.572;2022-07-17T06:19:20;19.70;99.90
28075;DHT22;15385;51.088;6.572;2022-07-17T06:21:51;19.70;99.90
28075;DHT22;15385;51.088;6.572;2022-07-17T06:24:22;19.70;99.90
28075;DHT22;15385;51.088;6.572;2022-07-17T06:26:55;19.80;99.90
28075;DHT22;15385;51.088;6.572;2022-07-17T06:29:25;19.80;99.90
28075;DHT22;15385;51.088;6.572;2022-07-17T06:31:57;19.90;99.90
28075;DHT22;15385;51.088;6.572;2022-07-17T06:34:27;20.00;99.90
28075;DHT22;15385;51.088;6.572;2022-07-17T06:36:58;20.10;99.90
28075;DHT22;15385;51.088;6.572;2022-07-17T06:39:28;20.10;99.90
28075;DHT22;15385;51.088;6.572;2022-07-17T06:41:59;20.10;99.90
28075;DHT22;15385;51.088;6.572;2022-07-17T06:44:30;20.20;99.90
28075;DHT22;15385;51.088;6.572;2022-07-17T06:47:01;20.30;99.90
28075;DHT22;15385;51.088;6.572;2022-07-17T06:49:31;20.40;99.90
28075;DHT22;15385;51.088;6.572;2022-07-17T06:52:02;20.40;99.90
28075;DHT22;15385;51.088;6.572;2022-07-17T06:54:33;20.50;99.90
28075;DHT22;15385;51.088;6.572;2022-07-17T06:57:04;20.50;99.90
28075;DHT22;15385;51.088;6.572;2022-07-17T06:59:38;20.70;99.90
28075;DHT22;15385;51.088;6.572;2022-07-17T07:02:09;20.90;99.90
28075;DHT22;15385;51.088;6.572;2022-07-17T07:04:40;21.10;99.90
28075;DHT22;15385;51.088;6.572;2022-07-17T07:07:11;21.00;99.90
28075;DHT22;15385;51.088;6.572;2022-07-17T07:09:42;21.20;99.90
28075;DHT22;15385;51.088;6.572;2022-07-17T07:12:12;21.30;99.90
28075;DHT22;15385;51.088;6.572;2022-07-17T07:14:43;21.40;99.90
28075;DHT22;15385;51.088;6.572;2022-07-17T07:17:13;21.40;99.90
28075;DHT22;15385;51.088;6.572;2022-07-17T07:19:47;21.50;99.90
28075;DHT22;15385;51.088;6.572;2022-07-17T07:22:17;21.70;99.90
28075;DHT22;15385;51.088;6.572;2022-07-17T07:24:48;22.00;99.90
28075;DHT22;15385;51.088;6.572;2022-07-17T07:27:19;22.10;99.90
28075;DHT22;15385;51.088;6.572;2022-07-17T07:29:49;22.30;99.90
28075;DHT22;15385;51.088;6.572;2022-07-17T07:32:20;22.50;99.90
28075;DHT22;15385;51.088;6.572;2022-07-17T07:34:51;22.50;99.90
28075;DHT22;15385;51.088;6.572;2022-07-17T07:37:22;22.30;99.90
28075;DHT22;15385;51.088;6.572;2022-07-17T07:39:53;22.40;99.90
28075;DHT22;15385;51.088;6.572;2022-07-17T07:42:26;22.40;99.90
28075;DHT22;15385;51.088;6.572;2022-07-17T07:44:57;22.50;99.90
28075;DHT22;15385;51.088;6.572;2022-07-17T07:47:27;22.70;99.90
28075;DHT22;15385;51.088;6.572;2022-07-17T07:49:58;22.80;99.90
28075;DHT22;15385;51.088;6.572;2022-07-17T07:52:29;22.90;99.90
28075;DHT22;15385;51.088;6.572;2022-07-17T07:54:59;23.20;99.90
28075;DHT22;15385;51.088;6.572;2022-07-17T07:57:30;23.50;99.90
28075;DHT22;15385;51.088;6.572;2022-07-17T08:00:01;23.60;99.90
28075;DHT22;15385;51.088;6.572;2022-07-17T08:02:32;23.80;99.90
28075;DHT22;15385;51.088;6.572;2022-07-17T08:05:04;23.90;99.90
28075;DHT22;15385;51.088;6.572;2022-07-17T08:07:35;23.90;99.90
28075;DHT22;15385;51.088;6.572;2022-07-17T08:10:07;23.80;99.90
28075;DHT22;15385;51.088;6.572;2022-07-17T08:12:40;24.00;99.90
28075;DHT22;15385;51.088;6.572;2022-07-17T08:15:11;24.20;99.90
28075;DHT22;15385;51.088;6.572;2022-07-17T08:17:46;24.40;99.90
28075;DHT22;15385;51.088;6.572;2022-07-17T08:20:18;24.70;99.80
28075;DHT22;15385;51.088;6.572;2022-07-17T08:22:50;24.80;97.30
28075;DHT22;15385;51.088;6.572;2022-07-17T08:25:21;24.60;97.50
28075;DHT22;15385;51.088;6.572;2022-07-17T08:27:52;24.70;97.90
28075;DHT22;15385;51.088;6.572;2022-07-17T08:30:22;24.90;97.90
28075;DHT22;15385;51.088;6.572;2022-07-17T08:32:53;25.10;97.30
28075;DHT22;15385;51.088;6.572;2022-07-17T08:35:24;25.30;97.60
28075;DHT22;15385;51.088;6.572;2022-07-17T08:37:54;25.50;97.20
28075;DHT22;15385;51.088;6.572;2022-07-17T08:40:28;25.60;96.30
28075;DHT22;15385;51.088;6.572;2022-07-17T08:43:01;25.50;95.90
28075;DHT22;15385;51.088;6.572;2022-07-17T08:45:33;25.60;96.20
28075;DHT22;15385;51.088;6.572;2022-07-17T08:48:05;25.70;96.10
28075;DHT22;15385;51.088;6.572;2022-07-17T08:50:37;25.80;95.60
28075;DHT22;15385;51.088;6.572;2022-07-17T08:53:09;25.90;95.60
28075;DHT22;15385;51.088;6.572;2022-07-17T08:55:41;26.00;95.40
28075;DHT22;15385;51.088;6.572;2022-07-17T08:58:19;26.10;95.90
28075;DHT22;15385;51.088;6.572;2022-07-17T09:00:50;26.20;95.30
28075;DHT22;15385;51.088;6.572;2022-07-17T09:03:21;26.40;94.50
28075;DHT22;15385;51.088;6.572;2022-07-17T09:05:53;26.40;94.40
28075;DHT22;15385;51.088;6.572;2022-07-17T09:08:24;26.50;94.50
28075;DHT22;15385;51.088;6.572;2022-07-17T09:11:05;26.80;94.50
28075;DHT22;15385;51.088;6.572;2022-07-17T09:13:36;26.80;94.20
28075;DHT22;15385;51.088;6.572;2022-07-17T09:16:15;26.80;93.70
28075;DHT22;15385;51.088;6.572;2022-07-17T09:18:48;26.80;93.50
28075;DHT22;15385;51.088;6.572;2022-07-17T09:21:22;27.00;93.50
28075;DHT22;15385;51.088;6.572;2022-07-17T09:26:32;27.20;92.50
28075;DHT22;15385;51.088;6.572;2022-07-17T09:29:04;27.10;91.30
28075;DHT22;15385;51.088;6.572;2022-07-17T09:31:34;26.70;91.30
28075;DHT22;15385;51.088;6.572;2022-07-17T09:34:16;26.80;91.80
28075;DHT22;15385;51.088;6.572;2022-07-17T09:37:01;26.90;91.50
28075;DHT22;15385;51.088;6.572;2022-07-17T09:39:36;26.90;90.90
28075;DHT22;15385;51.088;6.572;2022-07-17T09:42:07;27.00;91.50
28075;DHT22;15385;51.088;6.572;2022-07-17T09:44:38;27.10;91.50
28075;DHT22;15385;51.088;6.572;2022-07-17T09:47:09;27.10;91.30
28075;DHT22;15385;51.088;6.572;2022-07-17T09:49:42;27.20;91.20
28075;DHT22;15385;51.088;6.572;2022-07-17T09:52:16;27.20;90.40
28075;DHT22;15385;51.088;6.572;2022-07-17T09:54:48;27.30;89.40
28075;DHT22;15385;51.088;6.572;2022-07-17T09:57:19;27.30;89.80
28075;DHT22;15385;51.088;6.572;2022-07-17T09:59:53;27.50;88.40
28075;DHT22;15385;51.088;6.572;2022-07-17T10:02:24;27.60;88.00
28075;DHT22;15385;51.088;6.572;2022-07-17T10:04:55;27.60;87.00
28075;DHT22;15385;51.088;6.572;2022-07-17T10:07:27;27.50;86.80
28075;DHT22;15385;51.088;6.572;2022-07-17T10:09:58;27.50;85.30
28075;DHT22;15385;51.088;6.572;2022-07-17T10:12:29;27.30;85.20
28075;DHT22;15385;51.088;6.572;2022-07-17T10:14:59;27.40;86.20
28075;DHT22;15385;51.088;6.572;2022-07-17T10:17:30;27.70;88.60
28075;DHT22;15385;51.088;6.572;2022-07-17T10:20:01;27.90;87.30
28075;DHT22;15385;51.088;6.572;2022-07-17T10:22:44;28.30;87.80
28075;DHT22;15385;51.088;6.572;2022-07-17T10:25:16;28.50;86.50
28075;DHT22;15385;51.088;6.572;2022-07-17T10:27:49;28.70;86.80
28075;DHT22;15385;51.088;6.572;2022-07-17T10:30:27;28.80;85.90
28075;DHT22;15385;51.088;6.572;2022-07-17T10:32:59;28.80;84.30
28075;DHT22;15385;51.088;6.572;2022-07-17T10:35:45;28.80;84.30
28075;DHT22;15385;51.088;6.572;2022-07-17T10:38:16;29.00;84.50
28075;DHT22;15385;51.088;6.572;2022-07-17T10:40:47;29.20;83.50
28075;DHT22;15385;51.088;6.572;2022-07-17T10:43:42;29.30;83.00
28075;DHT22;15385;51.088;6.572;2022-07-17T10:46:13;29.10;83.80
28075;DHT22;15385;51.088;6.572;2022-07-17T10:48:48;29.20;84.10
28075;DHT22;15385;51.088;6.572;2022-07-17T10:51:23;29.40;81.80
28075;DHT22;15385;51.088;6.572;2022-07-17T10:53:57;29.40;82.40
28075;DHT22;15385;51.088;6.572;2022-07-17T10:56:29;29.40;82.00
28075;DHT22;15385;51.088;6.572;2022-07-17T10:59:03;29.50;81.60
28075;DHT22;15385;51.088;6.572;2022-07-17T11:01:33;29.60;80.90
28075;DHT22;15385;51.088;6.572;2022-07-17T11:04:04;29.40;77.60
28075;DHT22;15385;51.088;6.572;2022-07-17T11:06:38;29.00;79.00
28075;DHT22;15385;51.088;6.572;2022-07-17T11:09:10;29.10;79.60
28075;DHT22;15385;51.088;6.572;2022-07-17T11:11:51;29.40;80.00
28075;DHT22;15385;51.088;6.572;2022-07-17T11:14:26;29.60;80.90
28075;DHT22;15385;51.088;6.572;2022-07-17T11:16:59;29.80;78.00
28075;DHT22;15385;51.088;6.572;2022-07-17T11:19:34;29.50;77.10
28075;DHT22;15385;51.088;6.572;2022-07-17T11:22:07;29.40;75.80
28075;DHT22;15385;51.088;6.572;2022-07-17T11:24:41;29.10;76.80
28075;DHT22;15385;51.088;6.572;2022-07-17T11:27:30;29.30;79.30
28075;DHT22;15385;51.088;6.572;2022-07-17T11:30:03;29.40;78.90
28075;DHT22;15385;51.088;6.572;2022-07-17T11:32:38;29.60;78.20
28075;DHT22;15385;51.088;6.572;2022-07-17T11:35:19;29.90;78.50
28075;DHT22;15385;51.088;6.572;2022-07-17T11:37:50;30.20;76.10
28075;DHT22;15385;51.088;6.572;2022-07-17T11:40:22;30.30;76.70
28075;DHT22;15385;51.088;6.572;2022-07-17T11:43:19;30.40;76.80
28075;DHT22;15385;51.088;6.572;2022-07-17T11:45:50;30.50;76.50
28075;DHT22;15385;51.088;6.572;2022-07-17T11:48:21;30.60;77.10
28075;DHT22;15385;51.088;6.572;2022-07-17T11:50:53;30.60;76.60
28075;DHT22;15385;51.088;6.572;2022-07-17T11:53:33;30.80;75.80
28075;DHT22;15385;51.088;6.572;2022-07-17T11:56:05;30.90;74.20
28075;DHT22;15385;51.088;6.572;2022-07-17T11:58:46;30.90;74.70
28075;DHT22;15385;51.088;6.572;2022-07-17T12:01:17;30.80;72.40
28075;DHT22;15385;51.088;6.572;2022-07-17T12:03:58;30.70;70.20
28075;DHT22;15385;51.088;6.572;2022-07-17T12:06:29;30.40;71.50
28075;DHT22;15385;51.088;6.572;2022-07-17T12:08:59;30.40;74.20
28075;DHT22;15385;51.088;6.572;2022-07-17T12:11:30;30.60;74.40
28075;DHT22;15385;51.088;6.572;2022-07-17T12:14:05;30.60;74.30
28075;DHT22;15385;51.088;6.572;2022-07-17T12:16:39;30.60;74.70
28075;DHT22;15385;51.088;6.572;2022-07-17T12:19:17;30.60;74.30
28075;DHT22;15385;51.088;6.572;2022-07-17T12:24:36;30.70;74.20
28075;DHT22;15385;51.088;6.572;2022-07-17T12:27:09;30.70;74.60
28075;DHT22;15385;51.088;6.572;2022-07-17T12:29:41;30.70;74.20
28075;DHT22;15385;51.088;6.572;2022-07-17T12:32:14;30.80;74.20
28075;DHT22;15385;51.088;6.572;2022-07-17T12:34:47;30.90;72.90
28075;DHT22;15385;51.088;6.572;2022-07-17T12:37:20;30.80;72.00
28075;DHT22;15385;51.088;6.572;2022-07-17T12:39:54;30.90;71.90
28075;DHT22;15385;51.088;6.572;2022-07-17T12:42:26;30.80;70.80
28075;DHT22;15385;51.088;6.572;2022-07-17T12:44:56;30.80;72.30
28075;DHT22;15385;51.088;6.572;2022-07-17T12:47:27;31.00;71.90
28075;DHT22;15385;51.088;6.572;2022-07-17T12:49:58;31.10;70.30
28075;DHT22;15385;51.088;6.572;2022-07-17T12:52:29;31.10;69.00
28075;DHT22;15385;51.088;6.572;2022-07-17T12:54:59;31.10;69.00
28075;DHT22;15385;51.088;6.572;2022-07-17T12:57:33;31.00;68.10
28075;DHT22;15385;51.088;6.572;2022-07-17T13:00:04;30.90;68.90
28075;DHT22;15385;51.088;6.572;2022-07-17T13:02:35;30.90;68.70
28075;DHT22;15385;51.088;6.572;2022-07-17T13:05:06;30.90;69.70
28075;DHT22;15385;51.088;6.572;2022-07-17T13:07:37;30.90;69.30
28075;DHT22;15385;51.088;6.572;2022-07-17T13:10:09;30.90;68.50
28075;DHT22;15385;51.088;6.572;2022-07-17T13:12:39;30.90;68.80
28075;DHT22;15385;51.088;6.572;2022-07-17T13:15:11;30.90;68.00
28075;DHT22;15385;51.088;6.572;2022-07-17T13:17:41;30.90;69.10
28075;DHT22;15385;51.088;6.572;2022-07-17T13:20:12;30.90;67.70
28075;DHT22;15385;51.088;6.572;2022-07-17T13:22:44;30.80;66.70
28075;DHT22;15385;51.088;6.572;2022-07-17T13:25:14;30.90;67.00
28075;DHT22;15385;51.088;6.572;2022-07-17T13:27:45;30.90;67.70
28075;DHT22;15385;51.088;6.572;2022-07-17T13:30:19;31.10;67.30
28075;DHT22;15385;51.088;6.572;2022-07-17T13:32:50;31.10;66.70
28075;DHT22;15385;51.088;6.572;2022-07-17T13:35:20;31.10;65.90
28075;DHT22;15385;51.088;6.572;2022-07-17T13:37:51;31.00;64.20
28075;DHT22;15385;51.088;6.572;2022-07-17T13:40:23;30.90;64.50
28075;DHT22;15385;51.088;6.572;2022-07-17T13:42:55;30.90;64.80
28075;DHT22;15385;51.088;6.572;2022-07-17T13:45:29;30.70;63.70
28075;DHT22;15385;51.088;6.572;2022-07-17T13:48:00;30.60;62.50
28075;DHT22;15385;51.088;6.572;2022-07-17T13:50:31;30.60;63.90
28075;DHT22;15385;51.088;6.572;2022-07-17T13:53:02;30.70;62.60
28075;DHT22;15385;51.088;6.572;2022-07-17T13:55:32;30.80;63.00
28075;DHT22;15385;51.088;6.572;2022-07-17T13:58:03;30.80;60.30
28075;DHT22;15385;51.088;6.572;2022-07-17T14:00:38;30.90;62.10
28075;DHT22;15385;51.088;6.572;2022-07-17T14:03:09;30.90;62.10
28075;DHT22;15385;51.088;6.572;2022-07-17T14:05:40;31.00;61.50
28075;DHT22;15385;51.088;6.572;2022-07-17T14:08:11;31.10;60.70
28075;DHT22;15385;51.088;6.572;2022-07-17T14:10:42;31.00;59.90
28075;DHT22;15385;51.088;6.572;2022-07-17T14:13:13;30.90;59.90
28075;DHT22;15385;51.088;6.572;2022-07-17T14:15:44;30.50;58.60
28075;DHT22;15385;51.088;6.572;2022-07-17T14:18:15;30.40;59.10
28075;DHT22;15385;51.088;6.572;2022-07-17T14:20:45;30.50;62.70
28075;DHT22;15385;51.088;6.572;2022-07-17T14:23:16;30.60;63.00
28075;DHT22;15385;51.088;6.572;2022-07-17T14:25:47;30.70;62.90
28075;DHT22;15385;51.088;6.572;2022-07-17T14:28:18;30.70;62.30
28075;DHT22;15385;51.088;6.572;2022-07-17T14:30:49;30.80;61.90
28075;DHT22;15385;51.088;6.572;2022-07-17T14:33:19;30.70;61.60
28075;DHT22;15385;51.088;6.572;2022-07-17T14:35:50;30.70;61.50
28075;DHT22;15385;51.088;6.572;2022-07-17T14:38:20;30.70;62.00
28075;DHT22;15385;51.088;6.572;2022-07-17T14:40:51;30.70;62.00
28075;DHT22;15385;51.088;6.572;2022-07-17T14:43:22;30.80;61.70
28075;DHT22;15385;51.088;6.572;2022-07-17T14:45:53;30.70;61.70
28075;DHT22;15385;51.088;6.572;2022-07-17T14:48:24;30.80;62.00
28075;DHT22;15385;51.088;6.572;2022-07-17T14:50:54;30.90;62.60
28075;DHT22;15385;51.088;6.572;2022-07-17T14:53:25;30.90;62.00
28075;DHT22;15385;51.088;6.572;2022-07-17T14:55:56;30.90;62.10
28075;DHT22;15385;51.088;6.572;2022-07-17T14:58:28;31.00;63.40
28075;DHT22;15385;51.088;6.572;2022-07-17T15:01:01;31.10;62.70
28075;DHT22;15385;51.088;6.572;2022-07-17T15:03:32;31.10;62.20
28075;DHT22;15385;51.088;6.572;2022-07-17T15:06:05;31.10;62.50
28075;DHT22;15385;51.088;6.572;2022-07-17T15:08:36;31.10;63.20
28075;DHT22;15385;51.088;6.572;2022-07-17T15:11:07;31.20;62.80
28075;DHT22;15385;51.088;6.572;2022-07-17T15:13:38;31.30;62.50
28075;DHT22;15385;51.088;6.572;2022-07-17T15:16:08;31.30;61.50
28075;DHT22;15385;51.088;6.572;2022-07-17T15:18:39;31.30;61.40
28075;DHT22;15385;51.088;6.572;2022-07-17T15:21:13;31.30;62.00
28075;DHT22;15385;51.088;6.572;2022-07-17T15:23:46;31.20;60.90
28075;DHT22;15385;51.088;6.572;2022-07-17T15:26:16;31.00;61.50
28075;DHT22;15385;51.088;6.572;2022-07-17T15:28:47;31.10;62.60
28075;DHT22;15385;51.088;6.572;2022-07-17T15:31:18;31.20;62.10
28075;DHT22;15385;51.088;6.572;2022-07-17T15:33:48;31.20;61.70
28075;DHT22;15385;51.088;6.572;2022-07-17T15:36:19;31.20;61.30
28075;DHT22;15385;51.088;6.572;2022-07-17T15:38:58;31.20;61.40
28075;DHT22;15385;51.088;6.572;2022-07-17T15:41:35;31.20;60.60
28075;DHT22;15385;51.088;6.572;2022-07-17T15:44:06;31.10;60.90
28075;DHT22;15385;51.088;6.572;2022-07-17T15:46:37;31.00;60.90
28075;DHT22;15385;51.088;6.572;2022-07-17T15:49:08;30.90;61.00
28075;DHT22;15385;51.088;6.572;2022-07-17T15:51:39;31.00;60.90
28075;DHT22;15385;51.088;6.572;2022-07-17T15:54:10;30.90;60.90
28075;DHT22;15385;51.088;6.572;2022-07-17T15:56:40;30.60;60.10
28075;DHT22;15385;51.088;6.572;2022-07-17T15:59:11;30.70;60.60
28075;DHT22;15385;51.088;6.572;2022-07-17T16:01:42;30.80;60.70
28075;DHT22;15385;51.088;6.572;2022-07-17T16:04:13;30.70;59.80